sensor_id;sensor_type;location;lat;lon;timestamp;P1;durP1;ratioP1;P2;durP2;ratioP2
70985;SDS011;58645;43.068;25.610;2023-04-29T00:01:25;11.43;;;6.97;;
70985;SDS011;58645;43.068;25.610;2023-04-29T00:03:51;17.50;;;8.32;;
70985;SDS011;58645;43.068;25.610;2023-04-29T00:06:17;14.02;;;7.50;;
70985;SDS011;58645;43.068;25.610;2023-04-29T00:08:42;11.65;;;7.32;;
70985;SDS011;58645;43.068;25.610;2023-04-29T00:11:08;13.07;;;7.05;;
70985;SDS011;58645;43.068;25.610;2023-04-29T00:16:01;10.98;;;6.43;;
70985;SDS011;58645;43.068;25.610;2023-04-29T00:18:27;10.73;;;6.53;;
70985;SDS011;58645;43.068;25.610;2023-04-29T00:20:52;13.68;;;6.43;;
70985;SDS011;58645;43.068;25.610;2023-04-29T00:23:18;12.40;;;7.65;;
70985;SDS011;58645;43.068;25.610;2023-04-29T00:25:44;14.88;;;7.07;;
70985;SDS011;58645;43.068;25.610;2023-04-29T00:28:10;17.88;;;8.52;;
70985;SDS011;58645;43.068;25.610;2023-04-29T00:30:35;19.00;;;9.48;;
70985;SDS011;58645;43.068;25.610;2023-04-29T00:33:01;16.73;;;8.95;;
70985;SDS011;58645;43.068;25.610;2023-04-29T00:35:27;17.25;;;8.38;;
70985;SDS011;58645;43.068;25.610;2023-04-29T00:37:52;15.20;;;7.70;;
70985;SDS011;58645;43.068;25.610;2023-04-29T00:40:18;12.63;;;7.45;;
70985;SDS011;58645;43.068;25.610;2023-04-29T00:42:44;12.77;;;6.90;;
70985;SDS011;58645;43.068;25.610;2023-04-29T00:45:10;11.73;;;7.15;;
70985;SDS011;58645;43.068;25.610;2023-04-29T00:47:36;11.40;;;7.07;;
70985;SDS011;58645;43.068;25.610;2023-04-29T00:50:03;13.60;;;7.03;;
70985;SDS011;58645;43.068;25.610;2023-04-29T00:52:31;11.32;;;6.80;;
70985;SDS011;58645;43.068;25.610;2023-04-29T00:54:58;14.35;;;7.72;;
70985;SDS011;58645;43.068;25.610;2023-04-29T00:57:25;13.98;;;7.50;;
70985;SDS011;58645;43.068;25.610;2023-04-29T00:59:57;22.92;;;10.32;;
70985;SDS011;58645;43.068;25.610;2023-04-29T01:02:23;31.10;;;12.20;;
70985;SDS011;58645;43.068;25.610;2023-04-29T01:04:50;31.15;;;14.13;;
70985;SDS011;58645;43.068;25.610;2023-04-29T01:07:17;32.75;;;14.75;;
70985;SDS011;58645;43.068;25.610;2023-04-29T01:12:43;29.02;;;12.13;;
70985;SDS011;58645;43.068;25.610;2023-04-29T01:15:20;26.30;;;10.77;;
70985;SDS011;58645;43.068;25.610;2023-04-29T01:17:49;17.73;;;9.23;;
70985;SDS011;58645;43.068;25.610;2023-04-29T01:20:19;20.83;;;10.90;;
70985;SDS011;58645;43.068;25.610;2023-04-29T01:22:46;22.63;;;11.38;;
70985;SDS011;58645;43.068;25.610;2023-04-29T01:25:12;22.88;;;9.35;;
70985;SDS011;58645;43.068;25.610;2023-04-29T01:33:05;17.80;;;8.80;;
70985;SDS011;58645;43.068;25.610;2023-04-29T01:36:07;16.60;;;9.30;;
70985;SDS011;58645;43.068;25.610;2023-04-29T01:39:05;17.90;;;9.40;;
70985;SDS011;58645;43.068;25.610;2023-04-29T01:45:00;16.27;;;7.97;;
70985;SDS011;58645;43.068;25.610;2023-04-29T01:47:31;17.52;;;9.18;;
70985;SDS011;58645;43.068;25.610;2023-04-29T01:49:57;16.65;;;8.90;;
70985;SDS011;58645;43.068;25.610;2023-04-29T01:52:23;16.75;;;9.07;;
70985;SDS011;58645;43.068;25.610;2023-04-29T01:54:49;15.98;;;8.57;;
70985;SDS011;58645;43.068;25.610;2023-04-29T01:57:14;18.98;;;8.38;;
70985;SDS011;58645;43.068;25.610;2023-04-29T01:59:41;15.57;;;8.52;;
70985;SDS011;58645;43.068;25.610;2023-04-29T02:02:06;13.70;;;7.20;;
70985;SDS011;58645;43.068;25.610;2023-04-29T02:04:32;16.33;;;8.00;;
70985;SDS011;58645;43.068;25.610;2023-04-29T02:06:58;20.50;;;8.43;;
70985;SDS011;58645;43.068;25.610;2023-04-29T02:09:24;19.70;;;8.63;;
70985;SDS011;58645;43.068;25.610;2023-04-29T02:11:50;17.52;;;8.85;;
70985;SDS011;58645;43.068;25.610;2023-04-29T02:14:15;20.40;;;8.90;;
70985;SDS011;58645;43.068;25.610;2023-04-29T02:16:44;18.48;;;9.05;;
70985;SDS011;58645;43.068;25.610;2023-04-29T02:19:10;22.67;;;9.43;;
70985;SDS011;58645;43.068;25.610;2023-04-29T02:21:36;16.77;;;8.10;;
70985;SDS011;58645;43.068;25.610;2023-04-29T02:24:04;14.93;;;8.07;;
70985;SDS011;58645;43.068;25.610;2023-04-29T02:26:30;14.90;;;7.18;;
70985;SDS011;58645;43.068;25.610;2023-04-29T02:28:58;16.77;;;7.57;;
70985;SDS011;58645;43.068;25.610;2023-04-29T02:31:24;18.83;;;7.90;;
70985;SDS011;58645;43.068;25.610;2023-04-29T02:33:49;17.17;;;8.13;;
70985;SDS011;58645;43.068;25.610;2023-04-29T02:36:15;16.70;;;8.10;;
70985;SDS011;58645;43.068;25.610;2023-04-29T02:38:42;11.55;;;6.60;;
70985;SDS011;58645;43.068;25.610;2023-04-29T02:41:08;11.40;;;6.30;;
70985;SDS011;58645;43.068;25.610;2023-04-29T02:43:33;13.40;;;6.65;;
70985;SDS011;58645;43.068;25.610;2023-04-29T02:46:00;11.95;;;7.00;;
70985;SDS011;58645;43.068;25.610;2023-04-29T02:48:26;15.13;;;7.97;;
70985;SDS011;58645;43.068;25.610;2023-04-29T02:50:52;14.82;;;7.55;;
70985;SDS011;58645;43.068;25.610;2023-04-29T02:53:17;16.15;;;8.00;;
70985;SDS011;58645;43.068;25.610;2023-04-29T02:55:44;17.65;;;8.63;;
70985;SDS011;58645;43.068;25.610;2023-04-29T02:58:11;14.02;;;6.55;;
70985;SDS011;58645;43.068;25.610;2023-04-29T03:00:36;14.10;;;6.97;;
70985;SDS011;58645;43.068;25.610;2023-04-29T03:03:04;14.13;;;6.97;;
70985;SDS011;58645;43.068;25.610;2023-04-29T03:07:58;14.18;;;6.80;;
70985;SDS011;58645;43.068;25.610;2023-04-29T03:10:24;11.20;;;6.15;;
70985;SDS011;58645;43.068;25.610;2023-04-29T03:12:50;10.20;;;6.15;;
70985;SDS011;58645;43.068;25.610;2023-04-29T03:15:16;10.07;;;5.82;;
70985;SDS011;58645;43.068;25.610;2023-04-29T03:17:41;12.23;;;6.57;;
70985;SDS011;58645;43.068;25.610;2023-04-29T03:20:09;11.93;;;6.88;;
70985;SDS011;58645;43.068;25.610;2023-04-29T03:22:36;10.88;;;5.90;;
70985;SDS011;58645;43.068;25.610;2023-04-29T03:25:01;15.75;;;6.75;;
70985;SDS011;58645;43.068;25.610;2023-04-29T03:27:27;10.55;;;5.82;;
70985;SDS011;58645;43.068;25.610;2023-04-29T03:29:53;10.75;;;5.72;;
70985;SDS011;58645;43.068;25.610;2023-04-29T03:32:19;10.80;;;4.90;;
70985;SDS011;58645;43.068;25.610;2023-04-29T03:34:44;6.32;;;3.80;;
70985;SDS011;58645;43.068;25.610;2023-04-29T03:37:10;7.93;;;4.72;;
70985;SDS011;58645;43.068;25.610;2023-04-29T03:39:36;8.75;;;4.95;;
70985;SDS011;58645;43.068;25.610;2023-04-29T03:42:02;6.95;;;4.32;;
70985;SDS011;58645;43.068;25.610;2023-04-29T03:44:28;10.70;;;4.78;;
70985;SDS011;58645;43.068;25.610;2023-04-29T03:46:54;7.47;;;4.50;;
70985;SDS011;58645;43.068;25.610;2023-04-29T03:49:20;9.38;;;4.78;;
70985;SDS011;58645;43.068;25.610;2023-04-29T03:51:47;9.18;;;4.95;;
70985;SDS011;58645;43.068;25.610;2023-04-29T03:54:13;9.52;;;4.78;;
70985;SDS011;58645;43.068;25.610;2023-04-29T03:56:39;7.72;;;3.95;;
70985;SDS011;58645;43.068;25.610;2023-04-29T03:59:05;8.07;;;4.28;;
70985;SDS011;58645;43.068;25.610;2023-04-29T04:01:31;9.45;;;5.38;;
70985;SDS011;58645;43.068;25.610;2023-04-29T04:03:57;8.45;;;4.97;;
70985;SDS011;58645;43.068;25.610;2023-04-29T04:06:23;10.60;;;4.90;;
70985;SDS011;58645;43.068;25.610;2023-04-29T04:08:48;7.20;;;4.43;;
70985;SDS011;58645;43.068;25.610;2023-04-29T04:11:14;7.68;;;4.95;;
70985;SDS011;58645;43.068;25.610;2023-04-29T04:13:41;9.10;;;4.85;;
70985;SDS011;58645;43.068;25.610;2023-04-29T04:16:09;7.35;;;5.05;;
70985;SDS011;58645;43.068;25.610;2023-04-29T04:18:38;9.82;;;5.20;;
70985;SDS011;58645;43.068;25.610;2023-04-29T04:21:07;10.82;;;5.30;;
70985;SDS011;58645;43.068;25.610;2023-04-29T04:23:34;10.52;;;5.43;;
70985;SDS011;58645;43.068;25.610;2023-04-29T04:26:00;12.10;;;5.90;;
70985;SDS011;58645;43.068;25.610;2023-04-29T04:28:26;11.52;;;6.32;;
70985;SDS011;58645;43.068;25.610;2023-04-29T04:30:51;11.90;;;6.40;;
70985;SDS011;58645;43.068;25.610;2023-04-29T04:33:17;19.52;;;10.27;;
70985;SDS011;58645;43.068;25.610;2023-04-29T04:35:43;33.63;;;15.68;;
70985;SDS011;58645;43.068;25.610;2023-04-29T04:38:09;24.27;;;13.13;;
70985;SDS011;58645;43.068;25.610;2023-04-29T04:40:35;30.73;;;16.60;;
70985;SDS011;58645;43.068;25.610;2023-04-29T04:43:05;22.67;;;13.23;;
70985;SDS011;58645;43.068;25.610;2023-04-29T04:45:30;17.35;;;11.15;;
70985;SDS011;58645;43.068;25.610;2023-04-29T04:47:56;15.32;;;7.75;;
70985;SDS011;58645;43.068;25.610;2023-04-29T04:50:22;7.20;;;4.35;;
70985;SDS011;58645;43.068;25.610;2023-04-29T04:52:47;8.45;;;5.00;;
70985;SDS011;58645;43.068;25.610;2023-04-29T04:55:13;8.52;;;5.90;;
70985;SDS011;58645;43.068;25.610;2023-04-29T04:57:39;10.95;;;6.55;;
70985;SDS011;58645;43.068;25.610;2023-04-29T05:00:05;15.52;;;8.23;;
70985;SDS011;58645;43.068;25.610;2023-04-29T05:02:31;13.15;;;7.72;;
70985;SDS011;58645;43.068;25.610;2023-04-29T05:04:57;16.98;;;8.15;;
70985;SDS011;58645;43.068;25.610;2023-04-29T05:07:23;13.40;;;7.93;;
70985;SDS011;58645;43.068;25.610;2023-04-29T05:09:48;16.42;;;10.20;;
70985;SDS011;58645;43.068;25.610;2023-04-29T05:12:14;21.23;;;10.07;;
70985;SDS011;58645;43.068;25.610;2023-04-29T05:14:40;22.52;;;12.85;;
70985;SDS011;58645;43.068;25.610;2023-04-29T05:17:06;27.00;;;15.98;;
70985;SDS011;58645;43.068;25.610;2023-04-29T05:19:34;29.70;;;15.48;;
70985;SDS011;58645;43.068;25.610;2023-04-29T05:21:59;38.28;;;16.90;;
70985;SDS011;58645;43.068;25.610;2023-04-29T05:24:25;27.25;;;14.60;;
70985;SDS011;58645;43.068;25.610;2023-04-29T05:26:51;66.32;;;22.75;;
70985;SDS011;58645;43.068;25.610;2023-04-29T05:29:18;65.63;;;25.33;;
70985;SDS011;58645;43.068;25.610;2023-04-29T05:31:43;62.85;;;26.73;;
70985;SDS011;58645;43.068;25.610;2023-04-29T05:34:09;54.40;;;22.48;;
70985;SDS011;58645;43.068;25.610;2023-04-29T05:36:35;34.78;;;16.90;;
70985;SDS011;58645;43.068;25.610;2023-04-29T05:39:01;27.85;;;14.73;;
70985;SDS011;58645;43.068;25.610;2023-04-29T05:41:27;37.63;;;15.88;;
70985;SDS011;58645;43.068;25.610;2023-04-29T05:43:52;24.73;;;13.85;;
70985;SDS011;58645;43.068;25.610;2023-04-29T05:46:18;38.05;;;17.65;;
70985;SDS011;58645;43.068;25.610;2023-04-29T05:48:44;47.00;;;22.45;;
70985;SDS011;58645;43.068;25.610;2023-04-29T05:51:10;45.58;;;20.88;;
70985;SDS011;58645;43.068;25.610;2023-04-29T05:53:37;29.10;;;16.33;;
70985;SDS011;58645;43.068;25.610;2023-04-29T05:56:04;23.88;;;16.25;;
70985;SDS011;58645;43.068;25.610;2023-04-29T05:58:32;32.55;;;16.40;;
70985;SDS011;58645;43.068;25.610;2023-04-29T06:01:01;30.35;;;15.45;;
70985;SDS011;58645;43.068;25.610;2023-04-29T06:03:27;26.40;;;15.63;;
70985;SDS011;58645;43.068;25.610;2023-04-29T06:05:53;26.55;;;15.20;;
70985;SDS011;58645;43.068;25.610;2023-04-29T06:10:45;25.63;;;12.93;;
70985;SDS011;58645;43.068;25.610;2023-04-29T06:13:11;24.33;;;10.95;;
70985;SDS011;58645;43.068;25.610;2023-04-29T06:15:37;18.15;;;10.63;;
70985;SDS011;58645;43.068;25.610;2023-04-29T06:18:03;15.52;;;10.80;;
70985;SDS011;58645;43.068;25.610;2023-04-29T06:20:28;17.33;;;10.88;;
70985;SDS011;58645;43.068;25.610;2023-04-29T06:22:54;20.20;;;10.82;;
70985;SDS011;58645;43.068;25.610;2023-04-29T06:25:20;20.88;;;11.75;;
70985;SDS011;58645;43.068;25.610;2023-04-29T06:27:45;20.83;;;11.38;;
70985;SDS011;58645;43.068;25.610;2023-04-29T06:30:12;24.42;;;12.38;;
70985;SDS011;58645;43.068;25.610;2023-04-29T06:32:38;13.73;;;7.85;;
70985;SDS011;58645;43.068;25.610;2023-04-29T06:35:04;17.13;;;9.50;;
70985;SDS011;58645;43.068;25.610;2023-04-29T06:37:30;19.20;;;10.32;;
70985;SDS011;58645;43.068;25.610;2023-04-29T06:39:56;14.55;;;8.13;;
70985;SDS011;58645;43.068;25.610;2023-04-29T06:42:22;14.48;;;8.93;;
70985;SDS011;58645;43.068;25.610;2023-04-29T06:44:47;9.20;;;5.80;;
70985;SDS011;58645;43.068;25.610;2023-04-29T06:47:13;9.52;;;5.35;;
70985;SDS011;58645;43.068;25.610;2023-04-29T06:49:39;8.68;;;4.32;;
70985;SDS011;58645;43.068;25.610;2023-04-29T06:52:07;7.53;;;4.40;;
70985;SDS011;58645;43.068;25.610;2023-04-29T06:54:33;6.90;;;4.95;;
70985;SDS011;58645;43.068;25.610;2023-04-29T06:59:26;8.52;;;4.57;;
70985;SDS011;58645;43.068;25.610;2023-04-29T07:01:52;6.78;;;4.70;;
70985;SDS011;58645;43.068;25.610;2023-04-29T07:04:18;7.45;;;4.90;;
70985;SDS011;58645;43.068;25.610;2023-04-29T07:09:11;8.70;;;4.43;;
70985;SDS011;58645;43.068;25.610;2023-04-29T07:11:38;7.43;;;4.45;;
70985;SDS011;58645;43.068;25.610;2023-04-29T07:14:04;7.40;;;4.18;;
70985;SDS011;58645;43.068;25.610;2023-04-29T07:16:31;8.65;;;3.92;;
70985;SDS011;58645;43.068;25.610;2023-04-29T07:18:57;7.13;;;3.90;;
70985;SDS011;58645;43.068;25.610;2023-04-29T07:23:49;4.85;;;3.30;;
70985;SDS011;58645;43.068;25.610;2023-04-29T07:28:41;6.05;;;2.40;;
70985;SDS011;58645;43.068;25.610;2023-04-29T07:31:08;4.45;;;2.80;;
70985;SDS011;58645;43.068;25.610;2023-04-29T07:33:35;4.65;;;2.67;;
70985;SDS011;58645;43.068;25.610;2023-04-29T07:38:28;5.55;;;3.08;;
70985;SDS011;58645;43.068;25.610;2023-04-29T07:43:20;4.72;;;2.67;;
70985;SDS011;58645;43.068;25.610;2023-04-29T07:45:46;3.78;;;2.08;;
70985;SDS011;58645;43.068;25.610;2023-04-29T07:48:12;4.07;;;2.42;;
70985;SDS011;58645;43.068;25.610;2023-04-29T07:50:38;3.97;;;2.33;;
70985;SDS011;58645;43.068;25.610;2023-04-29T07:53:03;4.60;;;2.67;;
70985;SDS011;58645;43.068;25.610;2023-04-29T07:55:30;3.05;;;2.33;;
70985;SDS011;58645;43.068;25.610;2023-04-29T07:57:56;3.58;;;2.22;;
70985;SDS011;58645;43.068;25.610;2023-04-29T08:00:22;3.90;;;2.63;;
70985;SDS011;58645;43.068;25.610;2023-04-29T08:02:52;5.35;;;3.35;;
70985;SDS011;58645;43.068;25.610;2023-04-29T08:05:19;6.90;;;3.72;;
70985;SDS011;58645;43.068;25.610;2023-04-29T08:07:48;5.60;;;3.47;;
70985;SDS011;58645;43.068;25.610;2023-04-29T08:10:14;8.43;;;4.07;;
70985;SDS011;58645;43.068;25.610;2023-04-29T08:12:44;6.03;;;3.60;;
70985;SDS011;58645;43.068;25.610;2023-04-29T08:15:10;6.32;;;3.13;;
70985;SDS011;58645;43.068;25.610;2023-04-29T08:17:35;4.85;;;3.03;;
70985;SDS011;58645;43.068;25.610;2023-04-29T08:20:01;3.88;;;2.42;;
70985;SDS011;58645;43.068;25.610;2023-04-29T08:22:27;4.95;;;2.85;;
70985;SDS011;58645;43.068;25.610;2023-04-29T08:24:53;5.20;;;2.75;;
70985;SDS011;58645;43.068;25.610;2023-04-29T08:27:19;5.20;;;2.97;;
70985;SDS011;58645;43.068;25.610;2023-04-29T08:29:46;5.70;;;2.45;;
70985;SDS011;58645;43.068;25.610;2023-04-29T08:32:11;6.68;;;3.45;;
70985;SDS011;58645;43.068;25.610;2023-04-29T08:34:37;3.50;;;2.90;;
70985;SDS011;58645;43.068;25.610;2023-04-29T08:37:03;4.28;;;2.50;;
70985;SDS011;58645;43.068;25.610;2023-04-29T08:39:29;4.38;;;2.47;;
70985;SDS011;58645;43.068;25.610;2023-04-29T08:41:56;3.78;;;2.63;;
70985;SDS011;58645;43.068;25.610;2023-04-29T08:44:22;4.95;;;2.15;;
70985;SDS011;58645;43.068;25.610;2023-04-29T08:46:49;6.18;;;2.22;;
70985;SDS011;58645;43.068;25.610;2023-04-29T08:49:16;5.03;;;2.42;;
70985;SDS011;58645;43.068;25.610;2023-04-29T08:51:42;5.03;;;2.50;;
70985;SDS011;58645;43.068;25.610;2023-04-29T08:54:08;4.72;;;2.38;;
70985;SDS011;58645;43.068;25.610;2023-04-29T08:56:35;4.45;;;2.33;;
70985;SDS011;58645;43.068;25.610;2023-04-29T08:59:02;5.55;;;2.05;;
70985;SDS011;58645;43.068;25.610;2023-04-29T09:01:30;2.67;;;2.00;;
70985;SDS011;58645;43.068;25.610;2023-04-29T09:06:50;4.45;;;1.85;;
70985;SDS011;58645;43.068;25.610;2023-04-29T09:09:20;3.28;;;1.88;;
70985;SDS011;58645;43.068;25.610;2023-04-29T09:11:46;3.22;;;1.92;;
70985;SDS011;58645;43.068;25.610;2023-04-29T09:14:12;5.13;;;2.20;;
70985;SDS011;58645;43.068;25.610;2023-04-29T09:16:39;4.55;;;2.40;;
70985;SDS011;58645;43.068;25.610;2023-04-29T09:19:05;6.00;;;2.10;;
70985;SDS011;58645;43.068;25.610;2023-04-29T09:21:30;3.47;;;2.10;;
70985;SDS011;58645;43.068;25.610;2023-04-29T09:23:57;4.03;;;2.33;;
70985;SDS011;58645;43.068;25.610;2023-04-29T09:26:24;3.20;;;2.13;;
70985;SDS011;58645;43.068;25.610;2023-04-29T09:31:39;3.58;;;2.25;;
70985;SDS011;58645;43.068;25.610;2023-04-29T09:34:05;4.60;;;2.20;;
70985;SDS011;58645;43.068;25.610;2023-04-29T09:39:06;6.13;;;1.98;;
70985;SDS011;58645;43.068;25.610;2023-04-29T09:41:37;6.20;;;2.10;;
70985;SDS011;58645;43.068;25.610;2023-04-29T09:44:04;4.45;;;2.38;;
70985;SDS011;58645;43.068;25.610;2023-04-29T09:46:31;2.63;;;1.92;;
70985;SDS011;58645;43.068;25.610;2023-04-29T09:48:58;4.20;;;1.92;;
70985;SDS011;58645;43.068;25.610;2023-04-29T09:51:24;2.88;;;1.98;;
70985;SDS011;58645;43.068;25.610;2023-04-29T09:53:50;4.95;;;2.15;;
70985;SDS011;58645;43.068;25.610;2023-04-29T09:56:16;4.80;;;2.17;;
70985;SDS011;58645;43.068;25.610;2023-04-29T09:58:42;3.65;;;2.15;;
70985;SDS011;58645;43.068;25.610;2023-04-29T10:01:08;4.75;;;2.10;;
70985;SDS011;58645;43.068;25.610;2023-04-29T10:03:35;3.80;;;2.10;;
70985;SDS011;58645;43.068;25.610;2023-04-29T10:06:02;3.50;;;1.92;;
70985;SDS011;58645;43.068;25.610;2023-04-29T10:08:30;5.00;;;2.30;;
70985;SDS011;58645;43.068;25.610;2023-04-29T10:10:58;4.38;;;2.13;;
70985;SDS011;58645;43.068;25.610;2023-04-29T10:13:26;3.50;;;1.88;;
70985;SDS011;58645;43.068;25.610;2023-04-29T10:18:35;3.70;;;1.95;;
70985;SDS011;58645;43.068;25.610;2023-04-29T10:21:02;4.03;;;2.15;;
70985;SDS011;58645;43.068;25.610;2023-04-29T10:23:30;5.03;;;2.30;;
70985;SDS011;58645;43.068;25.610;2023-04-29T10:25:58;3.97;;;1.98;;
70985;SDS011;58645;43.068;25.610;2023-04-29T10:28:28;3.13;;;2.20;;
70985;SDS011;58645;43.068;25.610;2023-04-29T10:30:56;3.40;;;2.05;;
70985;SDS011;58645;43.068;25.610;2023-04-29T10:33:29;7.40;;;2.25;;
70985;SDS011;58645;43.068;25.610;2023-04-29T10:35:56;3.97;;;2.17;;
70985;SDS011;58645;43.068;25.610;2023-04-29T10:38:25;4.93;;;2.38;;
70985;SDS011;58645;43.068;25.610;2023-04-29T10:40:59;6.32;;;2.25;;
70985;SDS011;58645;43.068;25.610;2023-04-29T10:43:28;6.60;;;2.28;;
70985;SDS011;58645;43.068;25.610;2023-04-29T10:46:29;4.40;;;2.10;;
70985;SDS011;58645;43.068;25.610;2023-04-29T10:48:55;3.67;;;1.80;;
70985;SDS011;58645;43.068;25.610;2023-04-29T10:51:37;3.05;;;1.73;;
70985;SDS011;58645;43.068;25.610;2023-04-29T10:54:08;3.33;;;1.85;;
70985;SDS011;58645;43.068;25.610;2023-04-29T10:56:35;4.70;;;2.10;;
70985;SDS011;58645;43.068;25.610;2023-04-29T10:59:16;4.55;;;1.73;;
70985;SDS011;58645;43.068;25.610;2023-04-29T11:04:11;3.95;;;1.90;;
70985;SDS011;58645;43.068;25.610;2023-04-29T11:06:38;3.85;;;1.95;;
70985;SDS011;58645;43.068;25.610;2023-04-29T11:14:30;4.30;;;1.92;;
70985;SDS011;58645;43.068;25.610;2023-04-29T11:17:07;3.75;;;1.80;;
70985;SDS011;58645;43.068;25.610;2023-04-29T11:22:11;3.72;;;1.70;;
70985;SDS011;58645;43.068;25.610;2023-04-29T11:24:48;3.55;;;1.90;;
70985;SDS011;58645;43.068;25.610;2023-04-29T11:27:16;2.95;;;1.70;;
70985;SDS011;58645;43.068;25.610;2023-04-29T11:29:43;2.72;;;1.75;;
70985;SDS011;58645;43.068;25.610;2023-04-29T11:32:10;4.35;;;2.00;;
70985;SDS011;58645;43.068;25.610;2023-04-29T11:34:36;6.15;;;2.30;;
70985;SDS011;58645;43.068;25.610;2023-04-29T11:37:03;3.65;;;1.80;;
70985;SDS011;58645;43.068;25.610;2023-04-29T11:39:32;2.97;;;1.83;;
70985;SDS011;58645;43.068;25.610;2023-04-29T11:42:03;3.70;;;1.85;;
70985;SDS011;58645;43.068;25.610;2023-04-29T11:44:32;3.47;;;1.75;;
70985;SDS011;58645;43.068;25.610;2023-04-29T11:47:05;4.53;;;1.75;;
70985;SDS011;58645;43.068;25.610;2023-04-29T11:49:32;4.55;;;1.92;;
70985;SDS011;58645;43.068;25.610;2023-04-29T11:51:59;5.03;;;2.55;;
70985;SDS011;58645;43.068;25.610;2023-04-29T11:54:25;2.80;;;1.48;;
70985;SDS011;58645;43.068;25.610;2023-04-29T11:56:52;3.30;;;2.00;;
70985;SDS011;58645;43.068;25.610;2023-04-29T11:59:19;4.57;;;1.77;;
70985;SDS011;58645;43.068;25.610;2023-04-29T12:01:46;5.55;;;1.65;;
70985;SDS011;58645;43.068;25.610;2023-04-29T12:04:12;4.05;;;1.67;;
70985;SDS011;58645;43.068;25.610;2023-04-29T12:06:38;2.83;;;1.88;;
70985;SDS011;58645;43.068;25.610;2023-04-29T12:09:05;3.60;;;1.75;;
70985;SDS011;58645;43.068;25.610;2023-04-29T12:11:31;3.70;;;1.98;;
70985;SDS011;58645;43.068;25.610;2023-04-29T12:13:57;3.78;;;1.73;;
70985;SDS011;58645;43.068;25.610;2023-04-29T12:16:26;3.83;;;1.58;;
70985;SDS011;58645;43.068;25.610;2023-04-29T12:18:53;4.22;;;1.90;;
70985;SDS011;58645;43.068;25.610;2023-04-29T12:21:23;4.40;;;1.80;;
70985;SDS011;58645;43.068;25.610;2023-04-29T12:23:49;3.95;;;1.60;;
70985;SDS011;58645;43.068;25.610;2023-04-29T12:26:16;3.67;;;1.65;;
70985;SDS011;58645;43.068;25.610;2023-04-29T12:28:45;2.95;;;1.77;;
70985;SDS011;58645;43.068;25.610;2023-04-29T12:31:13;3.53;;;1.77;;
70985;SDS011;58645;43.068;25.610;2023-04-29T12:33:41;3.92;;;1.63;;
70985;SDS011;58645;43.068;25.610;2023-04-29T12:36:16;4.10;;;1.95;;
70985;SDS011;58645;43.068;25.610;2023-04-29T12:38:43;3.65;;;1.98;;
70985;SDS011;58645;43.068;25.610;2023-04-29T12:41:09;2.92;;;1.73;;
70985;SDS011;58645;43.068;25.610;2023-04-29T12:43:38;4.10;;;1.70;;
70985;SDS011;58645;43.068;25.610;2023-04-29T12:46:04;4.68;;;1.88;;
70985;SDS011;58645;43.068;25.610;2023-04-29T12:48:35;4.63;;;1.80;;
70985;SDS011;58645;43.068;25.610;2023-04-29T12:51:02;4.30;;;1.58;;
70985;SDS011;58645;43.068;25.610;2023-04-29T12:53:29;3.72;;;2.05;;
70985;SDS011;58645;43.068;25.610;2023-04-29T12:55:55;5.53;;;3.22;;
70985;SDS011;58645;43.068;25.610;2023-04-29T12:58:22;2.50;;;1.67;;
70985;SDS011;58645;43.068;25.610;2023-04-29T13:00:47;4.40;;;1.92;;
70985;SDS011;58645;43.068;25.610;2023-04-29T13:03:14;2.90;;;1.73;;
70985;SDS011;58645;43.068;25.610;2023-04-29T13:05:39;5.18;;;2.17;;
70985;SDS011;58645;43.068;25.610;2023-04-29T13:08:05;4.65;;;1.80;;
70985;SDS011;58645;43.068;25.610;2023-04-29T13:10:32;3.88;;;1.70;;
70985;SDS011;58645;43.068;25.610;2023-04-29T13:13:01;4.13;;;1.70;;
70985;SDS011;58645;43.068;25.610;2023-04-29T13:15:26;3.35;;;1.60;;
70985;SDS011;58645;43.068;25.610;2023-04-29T13:17:52;4.30;;;1.90;;
70985;SDS011;58645;43.068;25.610;2023-04-29T13:20:19;3.65;;;2.15;;
70985;SDS011;58645;43.068;25.610;2023-04-29T13:22:45;3.75;;;1.92;;
70985;SDS011;58645;43.068;25.610;2023-04-29T13:25:12;3.80;;;1.90;;
70985;SDS011;58645;43.068;25.610;2023-04-29T13:27:39;3.35;;;1.75;;
70985;SDS011;58645;43.068;25.610;2023-04-29T13:30:05;3.95;;;1.80;;
70985;SDS011;58645;43.068;25.610;2023-04-29T13:32:32;4.20;;;1.90;;
70985;SDS011;58645;43.068;25.610;2023-04-29T13:37:24;3.42;;;1.90;;
70985;SDS011;58645;43.068;25.610;2023-04-29T13:42:16;3.65;;;1.88;;
70985;SDS011;58645;43.068;25.610;2023-04-29T13:47:11;3.88;;;2.25;;
70985;SDS011;58645;43.068;25.610;2023-04-29T13:49:38;2.63;;;1.90;;
70985;SDS011;58645;43.068;25.610;2023-04-29T13:52:05;4.15;;;1.90;;
70985;SDS011;58645;43.068;25.610;2023-04-29T13:54:32;2.33;;;1.73;;
70985;SDS011;58645;43.068;25.610;2023-04-29T13:56:58;5.65;;;1.90;;
70985;SDS011;58645;43.068;25.610;2023-04-29T13:59:24;2.90;;;2.10;;
70985;SDS011;58645;43.068;25.610;2023-04-29T14:01:49;3.33;;;1.83;;
70985;SDS011;58645;43.068;25.610;2023-04-29T14:04:15;4.25;;;1.80;;
70985;SDS011;58645;43.068;25.610;2023-04-29T14:06:42;3.13;;;1.95;;
70985;SDS011;58645;43.068;25.610;2023-04-29T14:09:08;5.50;;;3.08;;
70985;SDS011;58645;43.068;25.610;2023-04-29T14:11:33;3.97;;;2.30;;
70985;SDS011;58645;43.068;25.610;2023-04-29T14:14:01;4.13;;;2.17;;
70985;SDS011;58645;43.068;25.610;2023-04-29T14:16:27;2.60;;;1.90;;
70985;SDS011;58645;43.068;25.610;2023-04-29T14:18:53;4.47;;;2.17;;
70985;SDS011;58645;43.068;25.610;2023-04-29T14:21:20;5.75;;;2.30;;
70985;SDS011;58645;43.068;25.610;2023-04-29T14:23:47;4.50;;;1.92;;
70985;SDS011;58645;43.068;25.610;2023-04-29T14:26:13;3.60;;;2.42;;
70985;SDS011;58645;43.068;25.610;2023-04-29T14:31:04;6.70;;;2.17;;
70985;SDS011;58645;43.068;25.610;2023-04-29T14:33:30;5.35;;;2.40;;
70985;SDS011;58645;43.068;25.610;2023-04-29T14:35:56;5.25;;;2.55;;
70985;SDS011;58645;43.068;25.610;2023-04-29T14:38:21;6.25;;;2.55;;
70985;SDS011;58645;43.068;25.610;2023-04-29T14:40:47;3.65;;;2.17;;
70985;SDS011;58645;43.068;25.610;2023-04-29T14:43:13;4.63;;;2.42;;
70985;SDS011;58645;43.068;25.610;2023-04-29T14:45:38;3.60;;;2.03;;
70985;SDS011;58645;43.068;25.610;2023-04-29T14:48:05;4.65;;;2.40;;
70985;SDS011;58645;43.068;25.610;2023-04-29T14:50:31;4.57;;;2.58;;
70985;SDS011;58645;43.068;25.610;2023-04-29T14:52:57;3.92;;;2.30;;
70985;SDS011;58645;43.068;25.610;2023-04-29T14:55:24;3.65;;;2.13;;
70985;SDS011;58645;43.068;25.610;2023-04-29T14:57:50;4.20;;;2.20;;
70985;SDS011;58645;43.068;25.610;2023-04-29T15:00:15;4.38;;;2.30;;
70985;SDS011;58645;43.068;25.610;2023-04-29T15:02:41;4.85;;;2.08;;
70985;SDS011;58645;43.068;25.610;2023-04-29T15:05:07;6.97;;;2.25;;
70985;SDS011;58645;43.068;25.610;2023-04-29T15:07:33;3.55;;;2.25;;
70985;SDS011;58645;43.068;25.610;2023-04-29T15:10:00;5.30;;;2.00;;
70985;SDS011;58645;43.068;25.610;2023-04-29T15:14:51;3.90;;;2.25;;
70985;SDS011;58645;43.068;25.610;2023-04-29T15:17:17;5.95;;;2.28;;
70985;SDS011;58645;43.068;25.610;2023-04-29T15:19:43;2.95;;;1.80;;
70985;SDS011;58645;43.068;25.610;2023-04-29T15:22:09;3.05;;;1.98;;
70985;SDS011;58645;43.068;25.610;2023-04-29T15:24:35;3.72;;;1.95;;
70985;SDS011;58645;43.068;25.610;2023-04-29T15:27:01;4.80;;;2.20;;
70985;SDS011;58645;43.068;25.610;2023-04-29T15:31:53;3.00;;;1.92;;
70985;SDS011;58645;43.068;25.610;2023-04-29T15:34:19;4.82;;;2.20;;
70985;SDS011;58645;43.068;25.610;2023-04-29T15:36:45;4.63;;;2.17;;